Aérodrome :
LOGIN :

S'inscrire | Disclaimer

   EN    FR    IT 

 










Légende :    VFR   VFR Marginal   IFR   IFR Intensif   IFR Très Intensif
Visi : 
Plafond : 
>= 8 km
>= 3000ft
5 à 8 km
1000 à 3000 ft
1500m à 5 km
500 à 1000 ft
800 à 1500m
200 à 500 ft
< 800m
< 200 ft
Symboles :   Orages  Brouillard  Fortes neiges  Fortes précipitations  Vent > 20 kt
SIGMETs :   Divers  Orages  Givrage  Turbulence  Onde Orograph.  Cendres Volcan.






- Altitude de l'aérodrome : 183 ft


LIBA - Amendola Foggia

DERNIER METAR :
  • 230955Z 27004KT 9999 FEW040 26/09 Q1016 RMK FEW VIS MIN 9999 WIND THR11 27002KT WIND THR29 /////KT BLU

METARs EXPIRÉS :
  • 230855Z VRB02KT 9999 FEW040 25/10 Q1017 RMK FEW VIS MIN 9999 WIND THR11 VRB03KT WIND THR29 /////KT BLU
  • 230755Z 09004KT 9999 FEW040 24/10 Q1017
  • 230655Z 30006KT CAVOK 22/12 Q1017
  • 230555Z 28006KT CAVOK 19/12 Q1017 RMK SKC VIS MIN 9999 WIND THR11 29006KT WIND THR29 /////KT BLU

TAF TAF LIBA
Valide du 23 à 09h jusqu'au 23 à 18h UTC


230800Z 2309/2318 10012KT 9999 FEW030



MET'MAP, la Météo Aéronautique d'un coup d'oeil ! - Copyright ORBIFLY Décembre 2007 - Disclaimer

ORBIFLY MET'MAP TEAM :

Programmation & Développement : Alexandra Zaïnal
Sur une idée originale de : Baudouin d'Aumeries
Soutien technique & logistique : Manuel Goepfert
Assistance : Marc-Olivier Méhu




SOURCES & CREDITS :

   NOAA